createdAt,value
2019-02-27T00:00:50.055Z,5.70
2019-02-27T00:03:19.995Z,5.80
2019-02-27T00:05:49.480Z,6.00
2019-02-27T00:08:19.024Z,6.50
2019-02-27T00:10:48.616Z,6.60
2019-02-27T00:13:18.339Z,6.95
2019-02-27T00:15:47.860Z,6.67
2019-02-27T00:18:17.347Z,6.30
2019-02-27T00:20:46.881Z,6.93
2019-02-27T00:23:16.373Z,8.07
2019-02-27T00:25:46.728Z,7.87
2019-02-27T00:28:16.269Z,7.93
2019-02-27T00:30:45.777Z,7.33
2019-02-27T00:33:15.277Z,7.53
2019-02-27T00:35:44.861Z,6.60
2019-02-27T00:38:15.136Z,6.80
2019-02-27T00:40:44.729Z,6.40
2019-02-27T00:43:14.220Z,6.27
2019-02-27T00:45:43.713Z,5.97
2019-02-27T00:48:13.248Z,6.20
2019-02-27T00:50:43.402Z,6.12
2019-02-27T00:53:12.914Z,6.07
2019-02-27T00:55:42.403Z,6.03
2019-02-27T00:58:11.929Z,6.58
2019-02-27T01:00:41.472Z,6.63
2019-02-27T01:03:11.885Z,6.12
2019-02-27T01:05:41.732Z,6.60
2019-02-27T01:08:11.280Z,6.73
2019-02-27T01:10:42.824Z,6.10
2019-02-27T01:13:12.049Z,5.77
2019-02-27T01:15:41.804Z,5.90
2019-02-27T01:18:12.844Z,7.07
2019-02-27T01:20:45.681Z,6.17
2019-02-27T01:23:14.815Z,6.22
2019-02-27T01:25:44.317Z,6.10
2019-02-27T01:28:13.830Z,6.20
2019-02-27T01:30:43.387Z,6.27
2019-02-27T01:33:12.924Z,5.70
2019-02-27T01:35:42.503Z,5.83
2019-02-27T01:38:12.022Z,6.00
2019-02-27T01:40:41.524Z,5.87
2019-02-27T01:43:11.526Z,5.85
2019-02-27T01:45:41.017Z,5.57
2019-02-27T01:48:10.547Z,5.80
2019-02-27T01:50:40.042Z,5.90
2019-02-27T01:53:09.561Z,5.60
2019-02-27T01:55:39.700Z,5.72
2019-02-27T01:58:10.211Z,5.83
2019-02-27T02:00:40.170Z,5.90
2019-02-27T02:03:11.188Z,5.20
2019-02-27T02:05:41.162Z,5.00
2019-02-27T02:08:13.475Z,5.50
2019-02-27T02:10:42.722Z,5.30
2019-02-27T02:13:20.629Z,5.50
2019-02-27T02:16:00.922Z,5.20
2019-02-27T02:19:02.255Z,5.40
2019-02-27T02:21:54.254Z,5.50
2019-02-27T02:24:58.345Z,5.53
2019-02-27T02:27:49.530Z,5.47
2019-02-27T02:30:44.335Z,5.70
2019-02-27T02:33:33.510Z,5.33
2019-02-27T02:36:40.014Z,5.73
2019-02-27T02:39:22.717Z,5.70
2019-02-27T02:42:02.322Z,5.20
2019-02-27T02:45:09.479Z,5.75
2019-02-27T02:47:58.316Z,5.10
2019-02-27T02:50:54.302Z,5.63
2019-02-27T02:54:04.879Z,5.50
2019-02-27T02:57:00.561Z,5.47
2019-02-27T02:59:52.341Z,5.40
2019-02-27T03:02:51.836Z,5.28
2019-02-27T03:06:10.408Z,5.17
2019-02-27T03:09:02.148Z,5.20
2019-02-27T03:11:54.580Z,4.80
2019-02-27T03:15:16.342Z,5.43
2019-02-27T03:18:02.222Z,5.30
2019-02-27T03:20:45.328Z,5.30
2019-02-27T03:23:52.222Z,5.50
2019-02-27T03:26:30.709Z,5.10
2019-02-27T03:29:19.770Z,5.20
2019-02-27T03:32:11.907Z,4.97
2019-02-27T03:35:01.000Z,5.80
2019-02-27T03:37:40.941Z,4.93
2019-02-27T03:40:48.135Z,5.33
2019-02-27T03:43:32.599Z,5.60
2019-02-27T03:46:25.588Z,5.42
2019-02-27T03:49:25.295Z,5.27
2019-02-27T03:52:27.619Z,5.00
2019-02-27T03:55:48.029Z,4.90
2019-02-27T03:58:51.868Z,5.17
2019-02-27T04:01:42.380Z,5.27
2019-02-27T04:04:46.403Z,5.73
2019-02-27T04:07:41.229Z,5.00
2019-02-27T04:10:10.763Z,4.90
2019-02-27T04:12:40.302Z,5.60
2019-02-27T04:15:10.383Z,4.75
2019-02-27T04:17:38.275Z,4.47
2019-02-27T04:20:07.936Z,4.63
2019-02-27T04:22:37.689Z,4.87
2019-02-27T04:25:09.097Z,5.27
2019-02-27T04:27:39.093Z,4.55
2019-02-27T04:30:14.746Z,4.80
2019-02-27T04:32:47.734Z,4.80
2019-02-27T04:35:12.896Z,4.80
2019-02-27T04:37:42.418Z,4.83
2019-02-27T04:40:11.989Z,4.50
2019-02-27T04:42:42.109Z,4.20
2019-02-27T04:45:13.056Z,4.80
2019-02-27T04:47:42.652Z,4.77
2019-02-27T04:50:12.214Z,4.30
2019-02-27T04:52:41.769Z,4.50
2019-02-27T04:55:13.047Z,4.30
2019-02-27T04:57:42.492Z,4.00
2019-02-27T05:00:12.427Z,3.70
2019-02-27T05:02:41.956Z,4.30
2019-02-27T05:05:11.469Z,4.10
2019-02-27T05:07:40.985Z,3.72
2019-02-27T05:10:11.432Z,3.93
2019-02-27T05:12:40.945Z,4.00
2019-02-27T05:15:10.467Z,3.65
2019-02-27T05:17:39.983Z,3.67
2019-02-27T05:20:12.460Z,3.83
2019-02-27T05:22:41.153Z,4.20
2019-02-27T05:25:12.138Z,4.30
2019-02-27T05:27:41.881Z,4.43
2019-02-27T05:30:13.306Z,4.33
2019-02-27T05:32:42.812Z,4.17
2019-02-27T05:35:12.437Z,4.33
2019-02-27T05:37:42.380Z,4.08
2019-02-27T05:40:12.114Z,4.40
2019-02-27T05:42:41.634Z,4.47
2019-02-27T05:45:12.936Z,4.90
2019-02-27T05:47:45.824Z,4.17
2019-02-27T05:50:14.052Z,4.50
2019-02-27T05:52:48.370Z,4.30
2019-02-27T05:55:14.838Z,4.23
2019-02-27T05:57:44.373Z,4.90
2019-02-27T06:00:19.580Z,4.53
2019-02-27T06:02:49.115Z,4.67
2019-02-27T06:05:18.607Z,5.27
2019-02-27T06:07:48.138Z,5.33
2019-02-27T06:10:20.116Z,4.53
2019-02-27T06:12:49.768Z,4.13
2019-02-27T06:15:19.776Z,4.40
2019-02-27T06:17:49.885Z,4.30
2019-02-27T06:20:19.527Z,4.10
2019-02-27T06:22:49.052Z,4.57
2019-02-27T06:25:23.209Z,4.10
2019-02-27T06:27:52.540Z,4.07
2019-02-27T06:30:22.548Z,4.20
2019-02-27T06:32:52.098Z,4.60
2019-02-27T06:35:21.710Z,4.40
2019-02-27T06:37:51.469Z,4.10
2019-02-27T06:40:21.084Z,4.00
2019-02-27T06:42:53.414Z,4.10
2019-02-27T06:45:21.845Z,4.40
2019-02-27T06:47:51.355Z,3.90
2019-02-27T06:50:25.166Z,4.07
2019-02-27T06:52:52.101Z,3.72
2019-02-27T06:55:21.606Z,3.83
2019-02-27T06:57:51.173Z,3.70
2019-02-27T07:00:25.131Z,3.95
2019-02-27T07:02:55.504Z,3.53
2019-02-27T07:05:26.556Z,3.35
2019-02-27T07:07:56.042Z,3.83
2019-02-27T07:10:25.582Z,3.60
2019-02-27T07:12:55.419Z,3.90
2019-02-27T07:15:25.177Z,4.07
2019-02-27T07:17:55.989Z,4.00
2019-02-27T07:20:25.546Z,3.97
2019-02-27T07:22:55.060Z,3.55
2019-02-27T07:25:24.685Z,4.07
2019-02-27T07:27:54.166Z,4.20
2019-02-27T07:30:24.814Z,4.03
2019-02-27T07:32:54.309Z,4.07
2019-02-27T07:35:26.382Z,4.20
2019-02-27T07:37:55.057Z,4.77
2019-02-27T07:40:24.567Z,5.05
2019-02-27T07:42:54.057Z,4.53
2019-02-27T07:45:24.207Z,4.40
2019-02-27T07:47:53.687Z,3.30
2019-02-27T07:50:23.434Z,4.07
2019-02-27T07:52:52.973Z,4.20
2019-02-27T07:55:24.358Z,3.55
2019-02-27T07:57:58.506Z,3.57
2019-02-27T08:00:26.402Z,3.02
2019-02-27T08:02:56.068Z,3.20
2019-02-27T08:05:27.897Z,3.50
2019-02-27T08:07:56.843Z,3.10
2019-02-27T08:10:27.083Z,3.30
2019-02-27T08:12:56.838Z,3.90
2019-02-27T08:15:26.443Z,3.10
2019-02-27T08:17:57.937Z,3.20
2019-02-27T08:20:27.256Z,3.33
2019-02-27T08:22:57.805Z,2.73
2019-02-27T08:25:29.067Z,3.00
2019-02-27T08:27:58.571Z,2.87
2019-02-27T08:30:29.987Z,2.53
2019-02-27T08:32:59.478Z,2.87
2019-02-27T08:35:29.013Z,3.00
2019-02-27T08:38:02.473Z,2.93
2019-02-27T08:40:29.797Z,2.67
2019-02-27T08:42:59.292Z,2.50
2019-02-27T08:45:28.807Z,2.60
2019-02-27T08:47:58.327Z,2.63
2019-02-27T08:50:29.168Z,2.70
2019-02-27T08:53:00.201Z,2.68
2019-02-27T08:55:29.729Z,2.65
2019-02-27T08:57:59.204Z,2.40
2019-02-27T09:00:32.022Z,2.30
2019-02-27T09:03:02.924Z,2.80
2019-02-27T09:05:32.814Z,3.08
2019-02-27T09:08:02.337Z,3.30
2019-02-27T09:10:31.863Z,4.42
2019-02-27T09:13:05.443Z,4.33
2019-02-27T09:15:32.633Z,2.90
2019-02-27T09:18:02.515Z,2.80
2019-02-27T09:20:32.102Z,3.05
2019-02-27T09:23:01.620Z,2.83
2019-02-27T09:25:31.212Z,3.23
2019-02-27T09:28:00.708Z,3.17
2019-02-27T09:30:30.338Z,2.53
2019-02-27T09:32:59.855Z,2.83
2019-02-27T09:35:32.542Z,2.85
2019-02-27T09:38:00.684Z,3.00
2019-02-27T09:40:30.858Z,3.05
2019-02-27T09:43:00.383Z,2.73
2019-02-27T09:45:35.789Z,2.52
2019-02-27T09:48:05.986Z,2.55
2019-02-27T09:50:47.582Z,2.40
2019-02-27T09:53:15.141Z,2.22
2019-02-27T09:55:44.732Z,2.08
2019-02-27T09:58:14.801Z,2.50
2019-02-27T10:00:51.054Z,2.03
2019-02-27T10:03:21.592Z,2.00
2019-02-27T10:05:51.256Z,2.10
2019-02-27T10:08:20.762Z,2.42
2019-02-27T10:10:50.282Z,2.42
2019-02-27T10:13:19.784Z,2.77
2019-02-27T10:15:49.294Z,3.40
2019-02-27T10:18:21.895Z,2.83
2019-02-27T10:20:50.053Z,2.60
2019-02-27T10:23:19.645Z,2.80
2019-02-27T10:25:49.954Z,2.70
2019-02-27T10:28:19.619Z,2.75
2019-02-27T10:30:49.968Z,2.73
2019-02-27T10:33:20.283Z,2.70
2019-02-27T10:35:49.827Z,2.83
2019-02-27T10:38:19.336Z,3.17
2019-02-27T10:40:48.859Z,2.85
2019-02-27T10:43:18.364Z,3.10
2019-02-27T10:45:49.288Z,3.17
2019-02-27T10:48:19.107Z,3.14
2019-02-27T10:50:49.862Z,3.08
2019-02-27T10:53:19.387Z,2.85
2019-02-27T10:55:49.920Z,3.30
2019-02-27T10:58:19.496Z,3.20
2019-02-27T11:00:50.236Z,3.13
2019-02-27T11:03:19.737Z,3.35
2019-02-27T11:05:52.430Z,3.70
2019-02-27T11:08:20.633Z,2.92
2019-02-27T11:10:50.146Z,3.03
2019-02-27T11:13:19.943Z,3.50
2019-02-27T11:15:49.455Z,3.67
2019-02-27T11:18:18.960Z,3.42
2019-02-27T11:20:48.478Z,3.80
2019-02-27T11:23:17.992Z,3.73
2019-02-27T11:25:47.516Z,3.60
2019-02-27T11:28:17.039Z,3.55
2019-02-27T11:30:46.610Z,3.47
2019-02-27T11:33:25.078Z,3.40
2019-02-27T11:35:47.465Z,3.70
2019-02-27T11:38:17.756Z,3.70
2019-02-27T11:40:47.277Z,3.20
2019-02-27T11:43:17.908Z,3.40
2019-02-27T11:45:47.428Z,3.00
2019-02-27T11:48:16.936Z,3.43
2019-02-27T11:50:46.441Z,3.37
2019-02-27T11:53:15.979Z,3.07
2019-02-27T11:55:47.381Z,3.54
2019-02-27T11:58:17.863Z,3.30
2019-02-27T12:00:47.358Z,3.15
2019-02-27T12:03:16.876Z,2.97
2019-02-27T12:05:46.442Z,2.80
2019-02-27T12:08:15.964Z,3.20
2019-02-27T12:10:45.459Z,3.20
2019-02-27T12:13:15.026Z,3.35
2019-02-27T12:15:44.645Z,3.03
2019-02-27T12:18:14.180Z,3.10
2019-02-27T12:20:43.696Z,3.42
2019-02-27T12:23:13.191Z,3.12
2019-02-27T12:25:42.740Z,2.98
2019-02-27T12:28:12.410Z,3.00
2019-02-27T12:30:41.901Z,2.97
2019-02-27T12:33:11.501Z,3.25
2019-02-27T12:35:44.158Z,2.87
2019-02-27T12:38:12.254Z,3.05
2019-02-27T12:40:41.756Z,2.73
2019-02-27T12:43:11.280Z,2.80
2019-02-27T12:45:40.789Z,3.20
2019-02-27T12:48:12.601Z,3.18
2019-02-27T12:50:42.212Z,2.87
2019-02-27T12:53:11.754Z,2.77
2019-02-27T12:55:41.255Z,2.70
2019-02-27T12:58:10.853Z,2.70
2019-02-27T13:00:42.560Z,2.95
2019-02-27T13:03:11.686Z,3.02
2019-02-27T13:05:41.207Z,2.80
2019-02-27T13:08:11.388Z,2.80
2019-02-27T13:10:40.960Z,2.53
2019-02-27T13:13:10.574Z,2.70
2019-02-27T13:15:41.766Z,3.42
2019-02-27T13:18:11.309Z,3.20
2019-02-27T13:20:42.973Z,2.63
2019-02-27T13:23:12.061Z,2.80
2019-02-27T13:25:41.585Z,3.10
2019-02-27T13:28:11.096Z,3.00
2019-02-27T13:30:41.707Z,2.77
2019-02-27T13:33:11.684Z,3.40
2019-02-27T13:35:41.218Z,2.90
2019-02-27T13:38:10.708Z,3.00
2019-02-27T13:40:40.223Z,2.90
2019-02-27T13:43:09.826Z,3.20
2019-02-27T13:45:39.412Z,2.83
2019-02-27T13:48:08.928Z,3.07
2019-02-27T13:50:38.427Z,3.07
2019-02-27T13:53:07.930Z,3.20
2019-02-27T13:55:37.500Z,2.83
2019-02-27T13:58:07.076Z,3.17
2019-02-27T14:00:38.340Z,3.40
2019-02-27T14:03:12.182Z,3.50
2019-02-27T14:05:39.078Z,3.35
2019-02-27T14:08:08.802Z,3.20
2019-02-27T14:10:38.490Z,3.67
2019-02-27T14:13:09.746Z,3.20
2019-02-27T14:15:39.363Z,3.10
2019-02-27T14:18:08.858Z,3.27
2019-02-27T14:20:38.372Z,2.47
2019-02-27T14:23:08.037Z,2.60
2019-02-27T14:25:37.553Z,2.87
2019-02-27T14:28:07.084Z,3.07
2019-02-27T14:30:46.732Z,3.20
2019-02-27T14:33:19.357Z,3.40
2019-02-27T14:35:47.900Z,2.97
2019-02-27T14:38:17.394Z,2.87
2019-02-27T14:40:46.878Z,3.00
2019-02-27T14:43:16.434Z,3.20
2019-02-27T14:45:45.935Z,3.20
2019-02-27T14:48:18.164Z,3.13
2019-02-27T14:50:46.693Z,3.40
2019-02-27T14:53:19.697Z,3.08
2019-02-27T14:55:48.311Z,3.25
2019-02-27T14:58:17.811Z,3.37
2019-02-27T15:00:47.362Z,3.47
2019-02-27T15:03:16.856Z,3.03
2019-02-27T15:05:47.043Z,3.20
2019-02-27T15:08:16.533Z,3.77
2019-02-27T15:10:46.078Z,3.15
2019-02-27T15:13:15.643Z,3.37
2019-02-27T15:15:45.193Z,3.52
2019-02-27T15:18:14.706Z,3.45
2019-02-27T15:20:44.233Z,3.55
2019-02-27T15:23:13.753Z,3.20
2019-02-27T15:25:43.484Z,3.40
2019-02-27T15:28:13.014Z,3.47
2019-02-27T15:30:46.340Z,3.83
2019-02-27T15:33:13.750Z,3.83
2019-02-27T15:35:43.345Z,3.50
2019-02-27T15:38:12.950Z,3.57
2019-02-27T15:40:42.424Z,3.37
2019-02-27T15:43:16.840Z,3.85
2019-02-27T15:45:48.061Z,3.90
2019-02-27T15:48:14.475Z,3.50
2019-02-27T15:50:44.004Z,3.70
2019-02-27T15:53:15.007Z,4.37
2019-02-27T15:55:44.755Z,4.00
2019-02-27T15:58:14.244Z,4.20
2019-02-27T16:00:43.809Z,4.00
2019-02-27T16:03:13.333Z,3.73
2019-02-27T16:05:42.845Z,4.30
2019-02-27T16:08:12.391Z,3.60
2019-02-27T16:10:43.791Z,3.67
2019-02-27T16:13:13.688Z,3.90
2019-02-27T16:15:44.699Z,4.40
2019-02-27T16:18:14.276Z,4.13
2019-02-27T16:20:43.844Z,3.50
2019-02-27T16:23:13.365Z,3.47
2019-02-27T16:25:42.886Z,2.50
2019-02-27T16:28:16.405Z,2.60
2019-02-27T16:30:43.617Z,2.67
2019-02-27T16:33:13.166Z,2.80
2019-02-27T16:35:43.072Z,1.93
2019-02-27T16:38:13.261Z,2.08
2019-02-27T16:40:43.649Z,2.10
2019-02-27T16:43:14.323Z,2.23
2019-02-27T16:45:44.136Z,2.03
2019-02-27T16:48:13.656Z,2.03
2019-02-27T16:50:43.158Z,1.93
2019-02-27T16:53:16.115Z,1.90
2019-02-27T16:55:43.896Z,1.97
2019-02-27T16:58:13.421Z,4.33
2019-02-27T17:00:43.006Z,8.93
2019-02-27T17:03:13.419Z,6.97
2019-02-27T17:05:43.909Z,3.77
2019-02-27T17:08:14.488Z,4.10
2019-02-27T17:10:43.997Z,2.07
2019-02-27T17:13:15.451Z,2.07
2019-02-27T17:15:44.703Z,2.00
2019-02-27T17:18:14.189Z,1.60
2019-02-27T17:20:46.509Z,1.90
2019-02-27T17:23:14.937Z,1.80
2019-02-27T17:25:44.449Z,1.60
2019-02-27T17:28:13.960Z,1.60
2019-02-27T17:30:43.448Z,1.75
2019-02-27T17:33:12.970Z,2.40
2019-02-27T17:35:42.461Z,1.47
2019-02-27T17:38:13.730Z,1.70
2019-02-27T17:40:43.181Z,1.50
2019-02-27T17:43:12.731Z,1.40
2019-02-27T17:45:44.262Z,1.80
2019-02-27T17:48:13.496Z,1.50
2019-02-27T17:50:43.004Z,1.77
2019-02-27T17:53:12.517Z,1.80
2019-02-27T17:55:42.597Z,1.63
2019-02-27T17:58:12.102Z,1.50
2019-02-27T18:00:52.174Z,1.40
2019-02-27T18:03:21.691Z,1.32
2019-02-27T18:05:51.182Z,1.70
2019-02-27T18:08:20.692Z,1.70
2019-02-27T18:10:50.202Z,1.40
2019-02-27T18:13:19.811Z,1.60
2019-02-27T18:15:49.296Z,1.90
2019-02-27T18:18:19.754Z,1.92
2019-02-27T18:20:49.308Z,1.93
2019-02-27T18:23:18.825Z,1.73
2019-02-27T18:25:48.345Z,1.90
2019-02-27T18:28:17.882Z,2.00
2019-02-27T18:30:52.865Z,2.00
2019-02-27T18:33:19.232Z,2.70
2019-02-27T18:35:48.807Z,2.17
2019-02-27T18:38:18.305Z,2.43
2019-02-27T18:40:47.791Z,2.60
2019-02-27T18:43:17.329Z,2.57
2019-02-27T18:45:48.238Z,2.70
2019-02-27T18:48:18.081Z,2.30
2019-02-27T18:50:47.592Z,2.35
2019-02-27T18:53:17.107Z,2.37
2019-02-27T18:55:46.632Z,3.70
2019-02-27T18:58:18.170Z,2.70
2019-02-27T19:00:47.412Z,2.57
2019-02-27T19:03:16.962Z,2.33
2019-02-27T19:05:46.465Z,2.40
2019-02-27T19:08:16.052Z,2.90
2019-02-27T19:10:46.181Z,3.12
2019-02-27T19:13:15.785Z,3.40
2019-02-27T19:15:46.337Z,3.43
2019-02-27T19:18:16.832Z,3.90
2019-02-27T19:20:47.618Z,4.12
2019-02-27T19:23:18.454Z,4.53
2019-02-27T19:25:48.135Z,4.67
2019-02-27T19:28:17.654Z,4.67
2019-02-27T19:30:47.391Z,4.90
2019-02-27T19:33:17.000Z,5.43
2019-02-27T19:35:46.564Z,7.10
2019-02-27T19:38:16.087Z,6.33
2019-02-27T19:40:45.656Z,9.07
2019-02-27T19:43:15.183Z,11.90
2019-02-27T19:45:44.698Z,11.57
2019-02-27T19:48:14.392Z,9.27
2019-02-27T19:50:46.288Z,7.85
2019-02-27T19:53:15.980Z,9.50
2019-02-27T19:55:45.501Z,8.50
2019-02-27T19:58:18.174Z,8.17
2019-02-27T20:00:48.155Z,8.40
2019-02-27T20:03:17.510Z,8.73
2019-02-27T20:05:50.659Z,8.63
2019-02-27T20:08:19.469Z,8.83
2019-02-27T20:10:49.720Z,6.77
2019-02-27T20:13:19.552Z,6.22
2019-02-27T20:15:50.048Z,6.03
2019-02-27T20:18:19.806Z,4.73
2019-02-27T20:20:49.354Z,4.80
2019-02-27T20:23:18.965Z,4.90
2019-02-27T20:25:48.442Z,5.07
2019-02-27T20:28:18.033Z,5.30
2019-02-27T20:30:47.589Z,5.40
2019-02-27T20:33:17.202Z,5.50
2019-02-27T20:35:46.693Z,5.30
2019-02-27T20:38:16.974Z,5.20
2019-02-27T20:40:46.547Z,5.67
2019-02-27T20:43:16.070Z,5.77
2019-02-27T20:45:46.033Z,5.90
2019-02-27T20:48:15.558Z,6.00
2019-02-27T20:50:51.987Z,6.23
2019-02-27T20:53:21.864Z,6.50
2019-02-27T20:55:51.366Z,6.17
2019-02-27T20:58:22.167Z,7.10
2019-02-27T21:00:51.820Z,5.67
2019-02-27T21:03:26.771Z,5.77
2019-02-27T21:05:52.683Z,5.80
2019-02-27T21:08:22.225Z,5.95
2019-02-27T21:10:55.287Z,5.90
2019-02-27T21:13:23.052Z,6.22
2019-02-27T21:15:52.987Z,6.47
2019-02-27T21:18:22.535Z,6.70
2019-02-27T21:20:52.017Z,6.73
2019-02-27T21:23:21.538Z,7.50
2019-02-27T21:25:51.117Z,6.90
2019-02-27T21:28:21.543Z,6.85
2019-02-27T21:30:52.325Z,6.87
2019-02-27T21:33:22.625Z,7.53
2019-02-27T21:35:52.170Z,7.43
2019-02-27T21:38:21.697Z,7.55
2019-02-27T21:40:51.177Z,7.50
2019-02-27T21:43:25.371Z,7.67
2019-02-27T21:45:51.904Z,7.03
2019-02-27T21:48:23.473Z,7.70
2019-02-27T21:50:52.645Z,8.10
2019-02-27T21:53:22.164Z,7.78
2019-02-27T21:55:52.176Z,6.47
2019-02-27T21:58:21.791Z,8.00
2019-02-27T22:00:51.276Z,6.90
2019-02-27T22:03:20.856Z,7.60
2019-02-27T22:05:53.037Z,7.78
2019-02-27T22:08:21.600Z,8.13
2019-02-27T22:10:53.680Z,7.60
2019-02-27T22:13:29.485Z,8.47
2019-02-27T22:15:56.600Z,11.30
2019-02-27T22:18:24.930Z,13.53
2019-02-27T22:20:59.414Z,11.53
2019-02-27T22:23:25.655Z,8.67
2019-02-27T22:25:55.141Z,7.47
2019-02-27T22:28:24.676Z,7.73
2019-02-27T22:30:54.174Z,9.10
2019-02-27T22:33:23.749Z,12.97
2019-02-27T22:35:53.268Z,12.40
2019-02-27T22:38:25.681Z,10.63
2019-02-27T22:40:54.009Z,10.07
2019-02-27T22:43:23.529Z,8.08
2019-02-27T22:45:53.021Z,7.63
2019-02-27T22:48:22.531Z,7.40
2019-02-27T22:50:52.044Z,6.40
2019-02-27T22:53:21.528Z,6.43
2019-02-27T22:55:51.294Z,7.00
2019-02-27T22:58:20.787Z,6.67
2019-02-27T23:01:02.276Z,7.10
2019-02-27T23:03:45.169Z,7.60
2019-02-27T23:06:14.744Z,7.63
2019-02-27T23:08:44.572Z,8.43
2019-02-27T23:11:14.234Z,8.30
2019-02-27T23:13:47.423Z,8.03
2019-02-27T23:16:19.072Z,7.80
2019-02-27T23:18:48.707Z,8.00
2019-02-27T23:21:18.303Z,7.53
2019-02-27T23:23:47.899Z,7.10
2019-02-27T23:26:20.171Z,6.70
2019-02-27T23:28:48.760Z,6.53
2019-02-27T23:31:22.365Z,6.33
2019-02-27T23:33:49.532Z,6.10
2019-02-27T23:36:22.015Z,6.62
2019-02-27T23:38:50.333Z,6.12
2019-02-27T23:41:22.905Z,6.47
2019-02-27T23:43:51.176Z,6.53
2019-02-27T23:46:20.760Z,6.50
2019-02-27T23:48:50.240Z,6.23
2019-02-27T23:51:19.783Z,6.22
2019-02-27T23:53:49.274Z,6.67
2019-02-27T23:56:20.293Z,6.27
2019-02-27T23:58:50.233Z,6.67
